Aviation Digital Data Service (ADDS)

Output produced by METARs form (1236 UTC 26 February 2017)
found at http://aviationweather.gov/adds/metars/
 
KGSO 261122Z 2612/2712 31008KT P6SM SKC 
     FM262300 VRB05KT P6SM SCT250